sensor_id;sensor_type;location;lat;lon;timestamp;temperature;humidity
49052;DHT22;34866;48.670;18.260;2023-04-21T00:02:10;256.30;6502.40
49052;DHT22;34866;48.670;18.260;2023-04-21T00:04:41;256.40;6502.40
49052;DHT22;34866;48.670;18.260;2023-04-21T00:07:14;256.30;6502.40
49052;DHT22;34866;48.670;18.260;2023-04-21T00:09:40;256.20;6502.40
49052;DHT22;34866;48.670;18.260;2023-04-21T00:12:06;256.40;6502.40
49052;DHT22;34866;48.670;18.260;2023-04-21T00:14:32;256.60;6502.40
49052;DHT22;34866;48.670;18.260;2023-04-21T00:16:59;256.70;6502.40
49052;DHT22;34866;48.670;18.260;2023-04-21T00:19:25;256.70;6502.40
49052;DHT22;34866;48.670;18.260;2023-04-21T00:21:57;256.60;6502.40
49052;DHT22;34866;48.670;18.260;2023-04-21T00:24:26;256.30;6502.40
49052;DHT22;34866;48.670;18.260;2023-04-21T00:26:51;256.30;6502.40
49052;DHT22;34866;48.670;18.260;2023-04-21T00:29:17;256.30;6502.40
49052;DHT22;34866;48.670;18.260;2023-04-21T00:31:43;256.30;6502.40
49052;DHT22;34866;48.670;18.260;2023-04-21T00:34:09;256.30;6502.40
49052;DHT22;34866;48.670;18.260;2023-04-21T00:36:34;256.00;6502.40
49052;DHT22;34866;48.670;18.260;2023-04-21T00:39:03;256.10;6502.40
49052;DHT22;34866;48.670;18.260;2023-04-21T00:41:29;256.00;6502.40
49052;DHT22;34866;48.670;18.260;2023-04-21T00:44:02;231.10;6502.40
49052;DHT22;34866;48.670;18.260;2023-04-21T00:46:28;230.80;6502.40
49052;DHT22;34866;48.670;18.260;2023-04-21T00:48:54;230.70;6502.40
49052;DHT22;34866;48.670;18.260;2023-04-21T00:51:20;230.70;6502.40
49052;DHT22;34866;48.670;18.260;2023-04-21T00:53:46;230.60;6528.00
49052;DHT22;34866;48.670;18.260;2023-04-21T00:56:16;230.70;6502.40
49052;DHT22;34866;48.670;18.260;2023-04-21T00:58:42;230.50;512.00
49052;DHT22;34866;48.670;18.260;2023-04-21T01:01:08;205.60;870.40
49052;DHT22;34866;48.670;18.260;2023-04-21T01:03:34;230.40;870.40
49052;DHT22;34866;48.670;18.260;2023-04-21T01:06:00;230.40;563.20
49052;DHT22;34866;48.670;18.260;2023-04-21T01:08:26;205.70;1536.00
49052;DHT22;34866;48.670;18.260;2023-04-21T01:10:52;230.40;1433.60
49052;DHT22;34866;48.670;18.260;2023-04-21T01:13:21;205.70;1638.40
49052;DHT22;34866;48.670;18.260;2023-04-21T01:15:47;205.60;1715.20
49052;DHT22;34866;48.670;18.260;2023-04-21T01:18:13;205.60;1689.60
49052;DHT22;34866;48.670;18.260;2023-04-21T01:20:39;205.70;1817.60
49052;DHT22;34866;48.670;18.260;2023-04-21T01:23:05;205.30;2252.80
49052;DHT22;34866;48.670;18.260;2023-04-21T01:25:32;205.50;2252.80
49052;DHT22;34866;48.670;18.260;2023-04-21T01:27:59;205.40;2252.80
49052;DHT22;34866;48.670;18.260;2023-04-21T01:30:28;205.30;2252.80
49052;DHT22;34866;48.670;18.260;2023-04-21T01:32:54;205.30;2227.20
49052;DHT22;34866;48.670;18.260;2023-04-21T01:35:23;205.30;2099.20
49052;DHT22;34866;48.670;18.260;2023-04-21T01:37:48;205.10;2252.80
49052;DHT22;34866;48.670;18.260;2023-04-21T01:40:15;205.00;2252.80
49052;DHT22;34866;48.670;18.260;2023-04-21T01:42:42;205.00;2252.80
49052;DHT22;34866;48.670;18.260;2023-04-21T01:45:08;204.90;2252.80
49052;DHT22;34866;48.670;18.260;2023-04-21T01:47:35;204.80;2252.80
49052;DHT22;34866;48.670;18.260;2023-04-21T01:50:00;204.80;2252.80
49052;DHT22;34866;48.670;18.260;2023-04-21T01:52:26;179.90;2252.80
49052;DHT22;34866;48.670;18.260;2023-04-21T01:54:55;179.90;2252.80
49052;DHT22;34866;48.670;18.260;2023-04-21T01:57:20;179.80;2252.80
49052;DHT22;34866;48.670;18.260;2023-04-21T01:59:49;179.80;2252.80
49052;DHT22;34866;48.670;18.260;2023-04-21T02:02:15;179.60;2252.80
49052;DHT22;34866;48.670;18.260;2023-04-21T02:04:41;179.50;2252.80
49052;DHT22;34866;48.670;18.260;2023-04-21T02:07:06;179.80;2252.80
49052;DHT22;34866;48.670;18.260;2023-04-21T02:09:35;180.10;2252.80
49052;DHT22;34866;48.670;18.260;2023-04-21T02:12:01;180.00;2252.80
49052;DHT22;34866;48.670;18.260;2023-04-21T02:14:26;179.80;2252.80
49052;DHT22;34866;48.670;18.260;2023-04-21T02:16:52;179.50;2252.80
49052;DHT22;34866;48.670;18.260;2023-04-21T02:19:19;179.40;2252.80
49052;DHT22;34866;48.670;18.260;2023-04-21T02:21:44;179.20;2252.80
49052;DHT22;34866;48.670;18.260;2023-04-21T02:24:10;179.50;2252.80
49052;DHT22;34866;48.670;18.260;2023-04-21T02:26:36;179.60;2252.80
49052;DHT22;34866;48.670;18.260;2023-04-21T02:29:01;179.70;2252.80
49052;DHT22;34866;48.670;18.260;2023-04-21T02:31:28;179.60;2252.80
49052;DHT22;34866;48.670;18.260;2023-04-21T02:33:53;179.80;2252.80
49052;DHT22;34866;48.670;18.260;2023-04-21T02:36:20;179.30;2252.80
49052;DHT22;34866;48.670;18.260;2023-04-21T02:38:46;179.40;2252.80
49052;DHT22;34866;48.670;18.260;2023-04-21T02:41:11;179.50;2252.80
49052;DHT22;34866;48.670;18.260;2023-04-21T02:43:37;179.60;2252.80
49052;DHT22;34866;48.670;18.260;2023-04-21T02:46:06;179.80;2252.80
49052;DHT22;34866;48.670;18.260;2023-04-21T02:48:32;179.80;2252.80
49052;DHT22;34866;48.670;18.260;2023-04-21T02:50:58;179.80;2252.80
49052;DHT22;34866;48.670;18.260;2023-04-21T02:53:25;179.80;2252.80
49052;DHT22;34866;48.670;18.260;2023-04-21T02:55:51;179.80;2252.80
49052;DHT22;34866;48.670;18.260;2023-04-21T02:58:17;179.80;2252.80
49052;DHT22;34866;48.670;18.260;2023-04-21T03:00:43;179.80;2252.80
49052;DHT22;34866;48.670;18.260;2023-04-21T03:03:08;179.80;2252.80
49052;DHT22;34866;48.670;18.260;2023-04-21T03:05:34;179.60;2252.80
49052;DHT22;34866;48.670;18.260;2023-04-21T03:08:00;179.50;2252.80
49052;DHT22;34866;48.670;18.260;2023-04-21T03:10:26;179.50;2252.80
49052;DHT22;34866;48.670;18.260;2023-04-21T03:12:53;179.40;2252.80
49052;DHT22;34866;48.670;18.260;2023-04-21T03:15:18;179.30;2252.80
49052;DHT22;34866;48.670;18.260;2023-04-21T03:17:44;179.60;2252.80
49052;DHT22;34866;48.670;18.260;2023-04-21T03:20:10;179.90;2252.80
49052;DHT22;34866;48.670;18.260;2023-04-21T03:22:40;179.90;2252.80
49052;DHT22;34866;48.670;18.260;2023-04-21T03:25:06;179.90;2252.80
49052;DHT22;34866;48.670;18.260;2023-04-21T03:27:33;179.90;2252.80
49052;DHT22;34866;48.670;18.260;2023-04-21T03:29:59;179.90;2252.80
49052;DHT22;34866;48.670;18.260;2023-04-21T03:32:25;180.00;2252.80
49052;DHT22;34866;48.670;18.260;2023-04-21T03:34:51;179.70;2252.80
49052;DHT22;34866;48.670;18.260;2023-04-21T03:37:16;179.80;2252.80
49052;DHT22;34866;48.670;18.260;2023-04-21T03:39:42;179.90;2252.80
49052;DHT22;34866;48.670;18.260;2023-04-21T03:42:08;180.00;2252.80
49052;DHT22;34866;48.670;18.260;2023-04-21T03:44:33;179.90;2252.80
49052;DHT22;34866;48.670;18.260;2023-04-21T03:46:59;179.80;2252.80
49052;DHT22;34866;48.670;18.260;2023-04-21T03:49:27;179.80;2252.80
49052;DHT22;34866;48.670;18.260;2023-04-21T03:51:53;179.90;2252.80
49052;DHT22;34866;48.670;18.260;2023-04-21T03:54:18;179.80;2252.80
49052;DHT22;34866;48.670;18.260;2023-04-21T03:56:44;179.80;2252.80
49052;DHT22;34866;48.670;18.260;2023-04-21T03:59:10;179.90;2252.80
49052;DHT22;34866;48.670;18.260;2023-04-21T04:01:35;180.00;2252.80
49052;DHT22;34866;48.670;18.260;2023-04-21T04:04:01;204.80;2252.80
49052;DHT22;34866;48.670;18.260;2023-04-21T04:06:27;180.10;2252.80
49052;DHT22;34866;48.670;18.260;2023-04-21T04:08:54;180.00;2252.80
49052;DHT22;34866;48.670;18.260;2023-04-21T04:11:20;180.00;2252.80
49052;DHT22;34866;48.670;18.260;2023-04-21T04:13:45;179.80;2252.80
49052;DHT22;34866;48.670;18.260;2023-04-21T04:16:11;179.90;2252.80
49052;DHT22;34866;48.670;18.260;2023-04-21T04:18:37;179.90;2252.80
49052;DHT22;34866;48.670;18.260;2023-04-21T04:21:06;180.10;2252.80
49052;DHT22;34866;48.670;18.260;2023-04-21T04:23:33;204.80;2252.80
49052;DHT22;34866;48.670;18.260;2023-04-21T04:26:05;204.80;2252.80
49052;DHT22;34866;48.670;18.260;2023-04-21T04:28:34;204.80;2252.80
49052;DHT22;34866;48.670;18.260;2023-04-21T04:31:00;204.80;2252.80
49052;DHT22;34866;48.670;18.260;2023-04-21T04:33:27;204.80;2252.80
49052;DHT22;34866;48.670;18.260;2023-04-21T04:35:53;204.90;2252.80
49052;DHT22;34866;48.670;18.260;2023-04-21T04:38:19;205.00;2252.80
49052;DHT22;34866;48.670;18.260;2023-04-21T04:40:51;205.10;2252.80
49052;DHT22;34866;48.670;18.260;2023-04-21T04:43:19;205.10;2252.80
49052;DHT22;34866;48.670;18.260;2023-04-21T04:45:50;205.20;2252.80
49052;DHT22;34866;48.670;18.260;2023-04-21T04:48:16;205.20;2252.80
49052;DHT22;34866;48.670;18.260;2023-04-21T04:50:45;205.30;2252.80
49052;DHT22;34866;48.670;18.260;2023-04-21T04:53:10;205.30;2252.80
49052;DHT22;34866;48.670;18.260;2023-04-21T04:55:36;205.30;2252.80
49052;DHT22;34866;48.670;18.260;2023-04-21T04:58:02;205.30;2252.80
49052;DHT22;34866;48.670;18.260;2023-04-21T05:00:28;205.40;2252.80
49052;DHT22;34866;48.670;18.260;2023-04-21T05:02:54;205.30;2252.80
49052;DHT22;34866;48.670;18.260;2023-04-21T05:05:20;205.40;2252.80
49052;DHT22;34866;48.670;18.260;2023-04-21T05:07:46;205.50;2252.80
49052;DHT22;34866;48.670;18.260;2023-04-21T05:10:12;205.60;2252.80
49052;DHT22;34866;48.670;18.260;2023-04-21T05:12:39;205.60;2252.80
49052;DHT22;34866;48.670;18.260;2023-04-21T05:15:05;205.70;2252.80
49052;DHT22;34866;48.670;18.260;2023-04-21T05:17:32;205.70;2252.80
49052;DHT22;34866;48.670;18.260;2023-04-21T05:19:58;230.40;2252.80
49052;DHT22;34866;48.670;18.260;2023-04-21T05:22:24;205.70;2252.80
49052;DHT22;34866;48.670;18.260;2023-04-21T05:24:51;205.50;2252.80
49052;DHT22;34866;48.670;18.260;2023-04-21T05:27:17;205.60;2252.80
49052;DHT22;34866;48.670;18.260;2023-04-21T05:29:43;205.60;2252.80
49052;DHT22;34866;48.670;18.260;2023-04-21T05:32:08;205.70;2252.80
49052;DHT22;34866;48.670;18.260;2023-04-21T05:34:37;205.70;2252.80
49052;DHT22;34866;48.670;18.260;2023-04-21T05:37:03;205.70;2252.80
49052;DHT22;34866;48.670;18.260;2023-04-21T05:39:29;205.70;2252.80
49052;DHT22;34866;48.670;18.260;2023-04-21T05:41:54;230.50;2252.80
49052;DHT22;34866;48.670;18.260;2023-04-21T05:44:20;230.60;2252.80
49052;DHT22;34866;48.670;18.260;2023-04-21T05:46:46;230.60;2252.80
49052;DHT22;34866;48.670;18.260;2023-04-21T05:49:12;230.70;2252.80
49052;DHT22;34866;48.670;18.260;2023-04-21T05:51:37;230.70;2252.80
49052;DHT22;34866;48.670;18.260;2023-04-21T05:54:03;230.70;2252.80
49052;DHT22;34866;48.670;18.260;2023-04-21T05:56:29;230.80;2252.80
49052;DHT22;34866;48.670;18.260;2023-04-21T05:58:54;230.80;2252.80
49052;DHT22;34866;48.670;18.260;2023-04-21T06:01:20;230.80;2252.80
49052;DHT22;34866;48.670;18.260;2023-04-21T06:03:47;230.90;2252.80
49052;DHT22;34866;48.670;18.260;2023-04-21T06:06:14;231.00;2252.80
49052;DHT22;34866;48.670;18.260;2023-04-21T06:08:40;231.00;2252.80
49052;DHT22;34866;48.670;18.260;2023-04-21T06:11:07;231.10;2252.80
49052;DHT22;34866;48.670;18.260;2023-04-21T06:13:33;231.20;2252.80
49052;DHT22;34866;48.670;18.260;2023-04-21T06:15:59;231.30;2252.80
49052;DHT22;34866;48.670;18.260;2023-04-21T06:18:27;256.00;2252.80
49052;DHT22;34866;48.670;18.260;2023-04-21T06:20:54;256.20;2252.80
49052;DHT22;34866;48.670;18.260;2023-04-21T06:23:20;256.30;2252.80
49052;DHT22;34866;48.670;18.260;2023-04-21T06:25:46;256.30;2252.80
49052;DHT22;34866;48.670;18.260;2023-04-21T06:28:14;256.40;2252.80
49052;DHT22;34866;48.670;18.260;2023-04-21T06:30:39;256.40;2252.80
49052;DHT22;34866;48.670;18.260;2023-04-21T06:33:06;256.50;2252.80
49052;DHT22;34866;48.670;18.260;2023-04-21T06:35:32;256.60;2252.80
49052;DHT22;34866;48.670;18.260;2023-04-21T06:37:58;256.70;2252.80
49052;DHT22;34866;48.670;18.260;2023-04-21T06:40:23;256.80;1971.20
49052;DHT22;34866;48.670;18.260;2023-04-21T06:42:49;256.90;1843.20
49052;DHT22;34866;48.670;18.260;2023-04-21T06:45:14;256.90;1587.20
49052;DHT22;34866;48.670;18.260;2023-04-21T06:47:40;281.60;1587.20
49052;DHT22;34866;48.670;18.260;2023-04-21T06:50:09;281.70;1433.60
49052;DHT22;34866;48.670;18.260;2023-04-21T06:52:35;281.70;1075.20
49052;DHT22;34866;48.670;18.260;2023-04-21T06:55:00;281.70;1459.20
49052;DHT22;34866;48.670;18.260;2023-04-21T06:57:26;256.90;1331.20
49052;DHT22;34866;48.670;18.260;2023-04-21T06:59:52;282.00;896.00
49052;DHT22;34866;48.670;18.260;2023-04-21T07:02:17;282.20;409.60
49052;DHT22;34866;48.670;18.260;2023-04-21T07:04:43;282.30;486.40
49052;DHT22;34866;48.670;18.260;2023-04-21T07:07:09;282.40;6528.00
49052;DHT22;34866;48.670;18.260;2023-04-21T07:09:34;282.50;6528.00
49052;DHT22;34866;48.670;18.260;2023-04-21T07:12:00;282.30;6528.00
49052;DHT22;34866;48.670;18.260;2023-04-21T07:14:33;282.20;6528.00
49052;DHT22;34866;48.670;18.260;2023-04-21T07:16:58;307.30;128.00
49052;DHT22;34866;48.670;18.260;2023-04-21T07:19:24;307.40;128.00
49052;DHT22;34866;48.670;18.260;2023-04-21T07:21:50;307.80;128.00
49052;DHT22;34866;48.670;18.260;2023-04-21T07:24:16;333.40;128.00
49052;DHT22;34866;48.670;18.260;2023-04-21T07:26:41;333.50;128.00
49052;DHT22;34866;48.670;18.260;2023-04-21T07:29:07;333.50;128.00
49052;DHT22;34866;48.670;18.260;2023-04-21T07:31:33;358.70;128.00
49052;DHT22;34866;48.670;18.260;2023-04-21T07:33:58;358.70;128.00
49052;DHT22;34866;48.670;18.260;2023-04-21T07:36:25;358.60;128.00
49052;DHT22;34866;48.670;18.260;2023-04-21T07:38:52;358.70;128.00
49052;DHT22;34866;48.670;18.260;2023-04-21T07:41:21;358.50;128.00
49052;DHT22;34866;48.670;18.260;2023-04-21T07:43:48;358.50;204.80
49052;DHT22;34866;48.670;18.260;2023-04-21T07:46:14;358.70;128.00
49052;DHT22;34866;48.670;18.260;2023-04-21T07:48:40;358.80;537.60
49052;DHT22;34866;48.670;18.260;2023-04-21T07:51:06;358.70;128.00
49052;DHT22;34866;48.670;18.260;2023-04-21T07:53:32;358.80;128.00
49052;DHT22;34866;48.670;18.260;2023-04-21T07:55:57;384.20;128.00
49052;DHT22;34866;48.670;18.260;2023-04-21T07:58:25;384.70;128.00
49052;DHT22;34866;48.670;18.260;2023-04-21T08:00:50;384.10;128.00
49052;DHT22;34866;48.670;18.260;2023-04-21T08:03:16;384.40;128.00
49052;DHT22;34866;48.670;18.260;2023-04-21T08:05:45;384.10;128.00
49052;DHT22;34866;48.670;18.260;2023-04-21T08:08:11;384.10;128.00
49052;DHT22;34866;48.670;18.260;2023-04-21T08:10:36;384.30;128.00
49052;DHT22;34866;48.670;18.260;2023-04-21T08:13:02;409.70;128.00
49052;DHT22;34866;48.670;18.260;2023-04-21T08:15:33;384.90;128.00
49052;DHT22;34866;48.670;18.260;2023-04-21T08:18:00;410.00;128.00
49052;DHT22;34866;48.670;18.260;2023-04-21T08:20:29;410.40;128.00
49052;DHT22;34866;48.670;18.260;2023-04-21T08:22:55;410.50;128.00
49052;DHT22;34866;48.670;18.260;2023-04-21T08:25:20;410.30;128.00
49052;DHT22;34866;48.670;18.260;2023-04-21T08:27:46;435.20;665.60
49052;DHT22;34866;48.670;18.260;2023-04-21T08:30:20;435.30;128.00
49052;DHT22;34866;48.670;18.260;2023-04-21T08:32:47;435.30;128.00
49052;DHT22;34866;48.670;18.260;2023-04-21T08:35:12;435.60;128.00
49052;DHT22;34866;48.670;18.260;2023-04-21T08:37:47;435.60;128.00
49052;DHT22;34866;48.670;18.260;2023-04-21T08:40:13;436.00;128.00
49052;DHT22;34866;48.670;18.260;2023-04-21T08:42:40;435.90;128.00
49052;DHT22;34866;48.670;18.260;2023-04-21T08:45:10;435.70;332.80
49052;DHT22;34866;48.670;18.260;2023-04-21T08:47:38;435.50;128.00
49052;DHT22;34866;48.670;18.260;2023-04-21T08:50:06;435.50;409.60
49052;DHT22;34866;48.670;18.260;2023-04-21T08:52:32;436.10;281.60
49052;DHT22;34866;48.670;18.260;2023-04-21T08:54:58;460.80;128.00
49052;DHT22;34866;48.670;18.260;2023-04-21T08:57:24;461.00;128.00
49052;DHT22;34866;48.670;18.260;2023-04-21T08:59:50;461.20;128.00
49052;DHT22;34866;48.670;18.260;2023-04-21T09:02:17;461.00;128.00
49052;DHT22;34866;48.670;18.260;2023-04-21T09:04:47;460.90;128.00
49052;DHT22;34866;48.670;18.260;2023-04-21T09:07:44;435.90;128.00
49052;DHT22;34866;48.670;18.260;2023-04-21T09:10:09;461.20;128.00
49052;DHT22;34866;48.670;18.260;2023-04-21T09:12:38;461.20;128.00
49052;DHT22;34866;48.670;18.260;2023-04-21T09:15:09;461.30;128.00
49052;DHT22;34866;48.670;18.260;2023-04-21T09:17:36;460.90;128.00
49052;DHT22;34866;48.670;18.260;2023-04-21T09:22:39;436.00;128.00
49052;DHT22;34866;48.670;18.260;2023-04-21T09:25:06;460.90;128.00
49052;DHT22;34866;48.670;18.260;2023-04-21T09:27:37;461.50;128.00
49052;DHT22;34866;48.670;18.260;2023-04-21T09:30:04;461.60;128.00
49052;DHT22;34866;48.670;18.260;2023-04-21T09:32:40;461.60;128.00
49052;DHT22;34866;48.670;18.260;2023-04-21T09:35:10;461.50;128.00
49052;DHT22;34866;48.670;18.260;2023-04-21T09:37:37;461.60;128.00
49052;DHT22;34866;48.670;18.260;2023-04-21T09:40:03;461.00;128.00
49052;DHT22;34866;48.670;18.260;2023-04-21T09:42:32;436.10;128.00
49052;DHT22;34866;48.670;18.260;2023-04-21T09:44:58;461.00;128.00
49052;DHT22;34866;48.670;18.260;2023-04-21T09:47:27;461.30;128.00
49052;DHT22;34866;48.670;18.260;2023-04-21T09:49:53;461.40;128.00
49052;DHT22;34866;48.670;18.260;2023-04-21T09:52:23;460.90;128.00
49052;DHT22;34866;48.670;18.260;2023-04-21T09:54:56;436.10;128.00
49052;DHT22;34866;48.670;18.260;2023-04-21T09:57:26;461.00;128.00
49052;DHT22;34866;48.670;18.260;2023-04-21T09:59:59;461.30;128.00
49052;DHT22;34866;48.670;18.260;2023-04-21T10:02:29;461.60;128.00
49052;DHT22;34866;48.670;18.260;2023-04-21T10:04:55;486.70;128.00
49052;DHT22;34866;48.670;18.260;2023-04-21T10:07:21;486.70;128.00
49052;DHT22;34866;48.670;18.260;2023-04-21T10:09:57;486.90;128.00
49052;DHT22;34866;48.670;18.260;2023-04-21T10:12:24;486.70;128.00
49052;DHT22;34866;48.670;18.260;2023-04-21T10:14:52;486.50;128.00
49052;DHT22;34866;48.670;18.260;2023-04-21T10:17:20;512.00;128.00
49052;DHT22;34866;48.670;18.260;2023-04-21T10:20:25;512.80;128.00
49052;DHT22;34866;48.670;18.260;2023-04-21T10:22:56;512.20;128.00
49052;DHT22;34866;48.670;18.260;2023-04-21T10:25:22;512.00;128.00
49052;DHT22;34866;48.670;18.260;2023-04-21T10:27:47;512.20;128.00
49052;DHT22;34866;48.670;18.260;2023-04-21T10:30:31;512.10;128.00
49052;DHT22;34866;48.670;18.260;2023-04-21T10:33:04;512.50;128.00
49052;DHT22;34866;48.670;18.260;2023-04-21T10:38:40;512.70;128.00
49052;DHT22;34866;48.670;18.260;2023-04-21T10:41:31;512.50;128.00
49052;DHT22;34866;48.670;18.260;2023-04-21T10:44:00;512.70;128.00
49052;DHT22;34866;48.670;18.260;2023-04-21T10:46:48;537.90;128.00
49052;DHT22;34866;48.670;18.260;2023-04-21T10:49:28;537.80;128.00
49052;DHT22;34866;48.670;18.260;2023-04-21T10:57:31;486.80;128.00
49052;DHT22;34866;48.670;18.260;2023-04-21T10:59:57;487.10;128.00
49052;DHT22;34866;48.670;18.260;2023-04-21T11:02:25;486.60;128.00
49052;DHT22;34866;48.670;18.260;2023-04-21T11:04:52;486.60;128.00
49052;DHT22;34866;48.670;18.260;2023-04-21T11:07:20;486.60;128.00
49052;DHT22;34866;48.670;18.260;2023-04-21T11:09:46;486.40;128.00
49052;DHT22;34866;48.670;18.260;2023-04-21T11:12:18;461.50;128.00
49052;DHT22;34866;48.670;18.260;2023-04-21T11:14:45;461.30;128.00
49052;DHT22;34866;48.670;18.260;2023-04-21T11:17:16;461.10;128.00
49052;DHT22;34866;48.670;18.260;2023-04-21T11:19:53;460.80;128.00
49052;DHT22;34866;48.670;18.260;2023-04-21T11:22:23;460.80;128.00
49052;DHT22;34866;48.670;18.260;2023-04-21T11:24:54;436.00;128.00
49052;DHT22;34866;48.670;18.260;2023-04-21T11:27:21;435.90;128.00
49052;DHT22;34866;48.670;18.260;2023-04-21T11:29:48;436.00;128.00
49052;DHT22;34866;48.670;18.260;2023-04-21T11:32:15;435.90;128.00
49052;DHT22;34866;48.670;18.260;2023-04-21T11:34:41;435.80;128.00
49052;DHT22;34866;48.670;18.260;2023-04-21T11:37:28;435.90;128.00
49052;DHT22;34866;48.670;18.260;2023-04-21T11:40:02;435.70;128.00
49052;DHT22;34866;48.670;18.260;2023-04-21T11:42:30;435.60;128.00
49052;DHT22;34866;48.670;18.260;2023-04-21T11:44:56;435.50;128.00
49052;DHT22;34866;48.670;18.260;2023-04-21T11:47:25;435.50;128.00
49052;DHT22;34866;48.670;18.260;2023-04-21T11:49:55;435.50;128.00
49052;DHT22;34866;48.670;18.260;2023-04-21T11:52:26;435.50;128.00
49052;DHT22;34866;48.670;18.260;2023-04-21T11:55:00;435.50;128.00
49052;DHT22;34866;48.670;18.260;2023-04-21T11:57:29;435.30;128.00
49052;DHT22;34866;48.670;18.260;2023-04-21T12:00:05;435.30;204.80
49052;DHT22;34866;48.670;18.260;2023-04-21T12:02:32;435.40;230.40
49052;DHT22;34866;48.670;18.260;2023-04-21T12:05:11;384.80;256.00
49052;DHT22;34866;48.670;18.260;2023-04-21T12:07:40;435.50;281.60
49052;DHT22;34866;48.670;18.260;2023-04-21T12:10:17;435.80;128.00
49052;DHT22;34866;48.670;18.260;2023-04-21T12:12:44;435.80;128.00
49052;DHT22;34866;48.670;18.260;2023-04-21T12:15:11;436.00;128.00
49052;DHT22;34866;48.670;18.260;2023-04-21T12:17:44;436.10;128.00
49052;DHT22;34866;48.670;18.260;2023-04-21T12:20:14;436.10;128.00
49052;DHT22;34866;48.670;18.260;2023-04-21T12:22:40;460.90;128.00
49052;DHT22;34866;48.670;18.260;2023-04-21T12:25:06;461.00;128.00
49052;DHT22;34866;48.670;18.260;2023-04-21T12:27:34;461.00;128.00
49052;DHT22;34866;48.670;18.260;2023-04-21T12:30:00;461.10;128.00
49052;DHT22;34866;48.670;18.260;2023-04-21T12:32:29;461.00;128.00
49052;DHT22;34866;48.670;18.260;2023-04-21T12:34:55;461.10;128.00
49052;DHT22;34866;48.670;18.260;2023-04-21T12:37:20;461.10;128.00
49052;DHT22;34866;48.670;18.260;2023-04-21T12:39:46;460.90;128.00
49052;DHT22;34866;48.670;18.260;2023-04-21T12:42:12;460.90;128.00
49052;DHT22;34866;48.670;18.260;2023-04-21T12:44:38;460.80;128.00
49052;DHT22;34866;48.670;18.260;2023-04-21T12:47:05;461.00;128.00
49052;DHT22;34866;48.670;18.260;2023-04-21T12:49:31;461.10;128.00
49052;DHT22;34866;48.670;18.260;2023-04-21T12:51:56;461.00;128.00
49052;DHT22;34866;48.670;18.260;2023-04-21T12:54:22;461.10;128.00
49052;DHT22;34866;48.670;18.260;2023-04-21T12:56:49;461.10;128.00
49052;DHT22;34866;48.670;18.260;2023-04-21T12:59:15;461.20;128.00
49052;DHT22;34866;48.670;18.260;2023-04-21T13:01:41;461.10;128.00
49052;DHT22;34866;48.670;18.260;2023-04-21T13:04:07;461.10;128.00
49052;DHT22;34866;48.670;18.260;2023-04-21T13:06:33;461.20;128.00
49052;DHT22;34866;48.670;18.260;2023-04-21T13:08:59;461.20;128.00
49052;DHT22;34866;48.670;18.260;2023-04-21T13:11:25;461.60;128.00
49052;DHT22;34866;48.670;18.260;2023-04-21T13:13:53;486.90;128.00
49052;DHT22;34866;48.670;18.260;2023-04-21T13:16:19;486.80;128.00
49052;DHT22;34866;48.670;18.260;2023-04-21T13:18:45;486.50;128.00
49052;DHT22;34866;48.670;18.260;2023-04-21T13:21:12;486.40;128.00
49052;DHT22;34866;48.670;18.260;2023-04-21T13:23:37;486.40;128.00
49052;DHT22;34866;48.670;18.260;2023-04-21T13:26:03;486.60;128.00
49052;DHT22;34866;48.670;18.260;2023-04-21T13:28:29;487.10;128.00
49052;DHT22;34866;48.670;18.260;2023-04-21T13:30:56;487.10;128.00
49052;DHT22;34866;48.670;18.260;2023-04-21T13:33:22;487.20;128.00
49052;DHT22;34866;48.670;18.260;2023-04-21T13:35:48;486.90;128.00
49052;DHT22;34866;48.670;18.260;2023-04-21T13:38:17;487.20;128.00
49052;DHT22;34866;48.670;18.260;2023-04-21T13:40:43;512.30;128.00
49052;DHT22;34866;48.670;18.260;2023-04-21T13:43:10;487.00;128.00
49052;DHT22;34866;48.670;18.260;2023-04-21T13:45:36;487.30;128.00
49052;DHT22;34866;48.670;18.260;2023-04-21T13:48:03;512.20;128.00
49052;DHT22;34866;48.670;18.260;2023-04-21T13:50:28;512.00;128.00
49052;DHT22;34866;48.670;18.260;2023-04-21T13:52:54;487.30;128.00
49052;DHT22;34866;48.670;18.260;2023-04-21T13:55:20;512.40;128.00
49052;DHT22;34866;48.670;18.260;2023-04-21T13:57:45;512.10;128.00
49052;DHT22;34866;48.670;18.260;2023-04-21T14:00:13;512.10;128.00
49052;DHT22;34866;48.670;18.260;2023-04-21T14:02:39;512.30;128.00
49052;DHT22;34866;48.670;18.260;2023-04-21T14:05:06;512.70;128.00
49052;DHT22;34866;48.670;18.260;2023-04-21T14:07:33;487.30;128.00
49052;DHT22;34866;48.670;18.260;2023-04-21T14:10:00;487.10;128.00
49052;DHT22;34866;48.670;18.260;2023-04-21T14:12:26;486.60;128.00
49052;DHT22;34866;48.670;18.260;2023-04-21T14:14:51;486.50;128.00
49052;DHT22;34866;48.670;18.260;2023-04-21T14:17:17;486.60;128.00
49052;DHT22;34866;48.670;18.260;2023-04-21T14:19:43;486.50;128.00
49052;DHT22;34866;48.670;18.260;2023-04-21T14:22:08;486.80;128.00
49052;DHT22;34866;48.670;18.260;2023-04-21T14:24:34;486.80;128.00
49052;DHT22;34866;48.670;18.260;2023-04-21T14:27:00;487.00;128.00
49052;DHT22;34866;48.670;18.260;2023-04-21T14:29:26;487.20;128.00
49052;DHT22;34866;48.670;18.260;2023-04-21T14:31:51;487.10;128.00
49052;DHT22;34866;48.670;18.260;2023-04-21T14:34:23;487.10;128.00
49052;DHT22;34866;48.670;18.260;2023-04-21T14:36:49;487.20;128.00
49052;DHT22;34866;48.670;18.260;2023-04-21T14:39:17;486.80;128.00
49052;DHT22;34866;48.670;18.260;2023-04-21T14:41:43;486.60;128.00
49052;DHT22;34866;48.670;18.260;2023-04-21T14:44:10;486.60;128.00
49052;DHT22;34866;48.670;18.260;2023-04-21T14:46:36;486.60;128.00
49052;DHT22;34866;48.670;18.260;2023-04-21T14:49:03;486.60;128.00
49052;DHT22;34866;48.670;18.260;2023-04-21T14:51:29;486.60;128.00
49052;DHT22;34866;48.670;18.260;2023-04-21T14:53:56;486.60;128.00